createdAt,value
2023-02-21T00:00:09.001Z,16.77
2023-02-21T00:01:03.183Z,16.83
2023-02-21T00:01:53.949Z,18.23
2023-02-21T00:02:46.793Z,16.70
2023-02-21T00:03:37.506Z,16.47
2023-02-21T00:04:28.111Z,17.07
2023-02-21T00:05:19.403Z,17.03
2023-02-21T00:06:10.836Z,17.10
2023-02-21T00:07:13.515Z,17.43
2023-02-21T00:08:06.100Z,16.30
2023-02-21T00:08:59.184Z,16.83
2023-02-21T00:09:49.431Z,16.47
2023-02-21T00:10:39.950Z,17.20
2023-02-21T00:11:30.306Z,17.47
2023-02-21T00:12:20.815Z,17.83
2023-02-21T00:13:11.619Z,17.90
2023-02-21T00:14:02.533Z,17.10
2023-02-21T00:14:57.181Z,16.93
2023-02-21T00:15:47.336Z,17.73
2023-02-21T00:16:37.405Z,17.13
2023-02-21T00:17:27.974Z,17.57
2023-02-21T00:18:19.507Z,17.00
2023-02-21T00:19:09.689Z,17.87
2023-02-21T00:20:00.119Z,15.97
2023-02-21T00:20:50.496Z,17.37
2023-02-21T00:21:41.620Z,18.03
2023-02-21T00:22:34.289Z,17.37
2023-02-21T00:23:34.877Z,18.47
2023-02-21T00:24:26.060Z,17.50
2023-02-21T00:25:16.815Z,16.90
2023-02-21T00:26:08.167Z,16.20
2023-02-21T00:26:59.639Z,17.60
2023-02-21T00:27:50.532Z,17.90
2023-02-21T00:28:44.590Z,17.80
2023-02-21T00:29:35.302Z,18.77
2023-02-21T00:30:26.636Z,17.47
2023-02-21T00:31:18.634Z,17.27
2023-02-21T00:32:09.964Z,17.17
2023-02-21T00:33:01.800Z,18.10
2023-02-21T00:33:57.302Z,17.57
2023-02-21T00:34:47.481Z,18.07
2023-02-21T00:35:37.562Z,17.70
2023-02-21T00:36:27.749Z,17.90
2023-02-21T00:37:18.420Z,17.13
2023-02-21T00:38:11.838Z,18.37
2023-02-21T00:39:02.374Z,17.63
2023-02-21T00:39:54.016Z,18.47
2023-02-21T00:40:44.573Z,17.40
2023-02-21T00:41:37.801Z,17.10
2023-02-21T00:42:33.958Z,17.87
2023-02-21T00:43:39.874Z,17.67
2023-02-21T00:44:30.441Z,17.13
2023-02-21T00:45:27.509Z,17.93
2023-02-21T00:46:17.790Z,18.13
2023-02-21T00:47:08.415Z,17.90
2023-02-21T00:48:00.845Z,17.20
2023-02-21T00:48:52.931Z,17.97
2023-02-21T00:49:44.618Z,17.83
2023-02-21T00:50:43.215Z,17.97
2023-02-21T00:51:40.612Z,17.33
2023-02-21T00:52:43.902Z,16.93
2023-02-21T00:53:37.229Z,17.57
2023-02-21T00:54:29.590Z,18.17
2023-02-21T00:55:22.172Z,17.37
2023-02-21T00:56:20.364Z,18.07
2023-02-21T00:57:22.376Z,18.00
2023-02-21T00:58:15.738Z,19.03
2023-02-21T00:59:07.116Z,17.97
2023-02-21T01:00:05.664Z,19.17
2023-02-21T01:00:56.345Z,17.40
2023-02-21T01:01:47.775Z,17.57
2023-02-21T01:02:40.903Z,17.93
2023-02-21T01:03:33.494Z,17.33
2023-02-21T01:05:29.158Z,17.53
2023-02-21T01:06:29.139Z,17.70
2023-02-21T01:07:26.948Z,17.90
2023-02-21T01:08:21.911Z,18.60
2023-02-21T01:09:18.330Z,18.37
2023-02-21T01:10:14.331Z,17.23
2023-02-21T01:11:06.425Z,16.97
2023-02-21T01:11:57.467Z,18.03
2023-02-21T01:13:02.095Z,17.57
2023-02-21T01:15:07.734Z,18.17
2023-02-21T01:15:58.514Z,17.73
2023-02-21T01:16:57.278Z,17.77
2023-02-21T01:17:49.712Z,18.67
2023-02-21T01:18:47.797Z,19.27
2023-02-21T01:19:38.872Z,18.17
2023-02-21T01:20:33.641Z,18.47
2023-02-21T01:21:24.230Z,18.27
2023-02-21T01:22:16.686Z,17.97
2023-02-21T01:25:21.414Z,19.53
2023-02-21T01:26:22.915Z,18.70
2023-02-21T01:28:22.363Z,18.43
2023-02-21T01:29:15.860Z,18.27
2023-02-21T01:30:18.170Z,18.77
2023-02-21T01:31:11.441Z,19.00
2023-02-21T01:32:02.189Z,19.10
2023-02-21T01:32:52.361Z,18.70
2023-02-21T01:33:42.442Z,17.67
2023-02-21T01:34:34.116Z,18.63
2023-02-21T01:35:26.354Z,18.07
2023-02-21T01:36:16.834Z,18.13
2023-02-21T01:37:07.366Z,18.37
2023-02-21T01:37:59.560Z,18.70
2023-02-21T01:38:55.054Z,19.00
2023-02-21T01:39:45.148Z,18.57
2023-02-21T01:40:36.370Z,18.57
2023-02-21T01:41:28.742Z,18.33
2023-02-21T01:42:22.390Z,19.27
2023-02-21T01:44:48.863Z,18.73
2023-02-21T01:45:51.621Z,17.60
2023-02-21T01:46:50.183Z,17.80
2023-02-21T01:47:51.426Z,17.37
2023-02-21T01:48:44.361Z,17.60
2023-02-21T01:49:40.987Z,17.97
2023-02-21T01:51:05.192Z,16.93
2023-02-21T01:52:00.452Z,17.87
2023-02-21T01:52:53.613Z,17.83
2023-02-21T01:53:49.309Z,17.77
2023-02-21T01:55:07.423Z,17.80
2023-02-21T01:57:09.032Z,17.13
2023-02-21T02:00:21.228Z,19.13
2023-02-21T02:01:23.448Z,19.07
2023-02-21T02:02:32.836Z,19.27
2023-02-21T02:03:37.555Z,19.27
2023-02-21T02:04:38.980Z,17.50
2023-02-21T02:05:33.457Z,18.10
2023-02-21T02:06:33.945Z,18.67
2023-02-21T02:07:33.554Z,18.63
2023-02-21T02:08:28.242Z,18.70
2023-02-21T02:09:34.379Z,19.27
2023-02-21T02:10:31.837Z,18.70
2023-02-21T02:11:37.362Z,18.57
2023-02-21T02:12:24.419Z,18.57
2023-02-21T02:13:20.617Z,18.93
2023-02-21T02:14:14.270Z,19.57
2023-02-21T02:15:16.949Z,18.20
2023-02-21T02:16:40.198Z,19.00
2023-02-21T02:17:39.942Z,19.67
2023-02-21T02:18:53.649Z,18.47
2023-02-21T02:20:09.774Z,18.07
2023-02-21T02:21:13.475Z,18.93
2023-02-21T02:22:13.572Z,18.03
2023-02-21T02:23:09.777Z,18.23
2023-02-21T02:23:49.166Z,18.30
2023-02-21T02:24:56.956Z,18.80
2023-02-21T02:26:13.418Z,18.50
2023-02-21T02:27:38.586Z,18.17
2023-02-21T02:28:50.838Z,16.80
2023-02-21T02:29:54.861Z,19.80
2023-02-21T02:31:28.792Z,18.17
2023-02-21T02:32:57.129Z,18.63
2023-02-21T02:34:16.094Z,18.20
2023-02-21T02:35:02.242Z,18.60
2023-02-21T02:35:46.396Z,17.97
2023-02-21T02:37:03.450Z,17.67
2023-02-21T02:38:17.194Z,17.87
2023-02-21T02:39:32.849Z,16.73
2023-02-21T02:40:51.868Z,17.30
2023-02-21T02:44:41.411Z,17.93
2023-02-21T02:46:20.783Z,17.23
2023-02-21T02:47:05.743Z,17.87
2023-02-21T02:49:15.471Z,16.60
2023-02-21T02:50:36.271Z,17.60
2023-02-21T02:52:11.548Z,16.40
2023-02-21T02:53:02.381Z,16.47
2023-02-21T02:54:22.104Z,16.07
2023-02-21T02:55:02.634Z,16.23
2023-02-21T03:05:15.575Z,16.60
2023-02-21T03:07:19.516Z,16.40
2023-02-21T03:08:13.085Z,15.93
2023-02-21T03:09:14.750Z,16.73
2023-02-21T03:10:17.931Z,16.63
2023-02-21T03:11:16.546Z,17.23
2023-02-21T03:12:02.721Z,16.17
2023-02-21T03:13:00.066Z,15.27
2023-02-21T03:13:44.383Z,16.43
2023-02-21T03:14:20.818Z,16.50
2023-02-21T03:15:17.666Z,16.27
2023-02-21T03:16:13.274Z,15.37
2023-02-21T03:16:55.265Z,15.27
2023-02-21T03:17:34.127Z,15.37
2023-02-21T06:04:08.048Z,17.23
2023-02-21T06:04:39.837Z,16.63
2023-02-21T06:05:12.379Z,18.90
2023-02-21T06:05:44.231Z,19.57
2023-02-21T06:06:17.006Z,18.60
2023-02-21T06:06:48.938Z,19.47
2023-02-21T06:07:20.701Z,19.87
2023-02-21T06:07:52.702Z,19.97
2023-02-21T06:08:24.435Z,20.53
2023-02-21T06:08:56.166Z,20.70
2023-02-21T06:09:27.894Z,21.20
2023-02-21T06:09:59.682Z,20.43
2023-02-21T06:10:31.381Z,19.90
2023-02-21T06:11:03.229Z,20.13
2023-02-21T06:11:40.531Z,20.73
2023-02-21T06:12:12.251Z,20.10
2023-02-21T06:12:43.990Z,20.17
2023-02-21T06:13:15.738Z,19.70
2023-02-21T06:13:50.748Z,20.03
2023-02-21T06:14:22.420Z,19.43
2023-02-21T06:14:54.108Z,19.40
2023-02-21T06:15:26.106Z,19.90
2023-02-21T06:15:57.844Z,19.57
2023-02-21T06:16:36.612Z,19.30
2023-02-21T06:17:08.314Z,20.10
2023-02-21T06:17:41.204Z,19.67
2023-02-21T06:18:14.816Z,19.17
2023-02-21T06:18:51.466Z,19.23
2023-02-21T06:19:24.355Z,19.20
2023-02-21T06:19:57.330Z,18.70
2023-02-21T06:20:29.024Z,17.30
2023-02-21T06:21:01.457Z,17.20
2023-02-21T06:21:35.726Z,17.77
2023-02-21T06:22:10.646Z,17.20
2023-02-21T06:22:43.491Z,16.17
2023-02-21T06:23:15.746Z,16.57
2023-02-21T06:23:47.782Z,18.13
2023-02-21T06:24:19.633Z,17.73
2023-02-21T06:24:52.200Z,16.70
2023-02-21T06:25:24.281Z,16.90
2023-02-21T06:25:57.464Z,17.27
2023-02-21T06:26:29.368Z,16.20
2023-02-21T06:27:01.510Z,17.17
2023-02-21T06:27:33.210Z,17.77
2023-02-21T06:28:05.058Z,19.13
2023-02-21T06:28:36.822Z,18.17
2023-02-21T06:29:08.613Z,18.13
2023-02-21T06:30:36.194Z,17.53
2023-02-21T06:31:08.681Z,17.93
2023-02-21T06:31:40.930Z,18.07
2023-02-21T06:32:13.977Z,17.57
2023-02-21T06:32:50.417Z,17.77
2023-02-21T06:33:23.092Z,17.67
2023-02-21T06:33:54.804Z,17.43
2023-02-21T06:34:27.237Z,17.77
2023-02-21T06:34:58.948Z,17.20
2023-02-21T06:35:30.690Z,17.53
2023-02-21T06:36:12.572Z,18.27
2023-02-21T06:36:45.935Z,18.90
2023-02-21T06:37:19.194Z,19.03
2023-02-21T06:37:50.911Z,18.27
2023-02-21T06:38:22.977Z,18.03
2023-02-21T06:38:56.635Z,18.90
2023-02-21T06:39:28.385Z,18.43
2023-02-21T06:40:00.354Z,19.30
2023-02-21T06:40:32.041Z,18.50
2023-02-21T06:41:09.545Z,18.17
2023-02-21T06:41:41.238Z,19.63
2023-02-21T06:42:16.891Z,18.73
2023-02-21T06:42:50.505Z,18.23
2023-02-21T06:43:22.270Z,17.60
2023-02-21T06:43:55.591Z,18.63
2023-02-21T06:44:28.907Z,18.80
2023-02-21T06:45:00.954Z,17.33
2023-02-21T06:45:32.683Z,17.97
2023-02-21T06:46:05.191Z,17.63
2023-02-21T06:46:40.118Z,17.73
2023-02-21T06:47:12.036Z,18.30
2023-02-21T06:47:43.700Z,19.43
2023-02-21T06:48:17.325Z,19.30
2023-02-21T06:48:49.849Z,19.03
2023-02-21T06:49:22.105Z,19.17
2023-02-21T06:49:54.079Z,18.47
2023-02-21T06:50:27.102Z,17.47
2023-02-21T06:50:59.540Z,18.17
2023-02-21T06:51:38.481Z,18.20
2023-02-21T06:52:11.367Z,18.43
2023-02-21T06:52:43.065Z,18.20
2023-02-21T06:53:15.392Z,17.63
2023-02-21T06:53:50.801Z,17.03
2023-02-21T06:54:22.556Z,17.90
2023-02-21T06:54:54.974Z,17.90
2023-02-21T06:55:26.649Z,17.77
2023-02-21T06:56:00.502Z,17.30
2023-02-21T06:56:32.554Z,17.03
2023-02-21T06:57:06.720Z,17.33
2023-02-21T06:57:38.628Z,16.27
2023-02-21T06:58:10.945Z,16.67
2023-02-21T06:58:44.787Z,16.80
2023-02-21T06:59:16.598Z,17.17
2023-02-21T06:59:48.361Z,16.87
2023-02-21T07:00:20.232Z,17.30
2023-02-21T07:00:51.905Z,17.20
2023-02-21T07:01:26.024Z,17.77
2023-02-21T07:01:57.919Z,17.30
2023-02-21T07:02:29.657Z,15.90
2023-02-21T07:03:01.361Z,16.57
2023-02-21T07:03:33.028Z,15.97
2023-02-21T07:04:04.731Z,16.03
2023-02-21T07:04:36.399Z,16.27
2023-02-21T07:05:08.772Z,15.77
2023-02-21T07:05:40.552Z,15.63
2023-02-21T07:06:12.439Z,14.60
2023-02-21T07:06:44.110Z,15.93
2023-02-21T07:07:16.700Z,15.07
2023-02-21T07:07:49.837Z,14.40
2023-02-21T07:08:21.882Z,15.20
2023-02-21T07:08:53.563Z,15.87
2023-02-21T07:09:25.350Z,15.80
2023-02-21T07:09:57.072Z,14.97
2023-02-21T07:10:29.471Z,14.43
2023-02-21T07:11:05.102Z,14.23
2023-02-21T07:11:36.808Z,14.30
2023-02-21T07:12:08.960Z,15.40
2023-02-21T07:12:40.639Z,15.47
2023-02-21T07:13:12.395Z,15.33
2023-02-21T07:13:51.960Z,14.93
2023-02-21T07:14:23.656Z,14.93
2023-02-21T07:14:55.441Z,14.07
2023-02-21T07:15:27.257Z,14.37
2023-02-21T07:16:00.032Z,13.77
2023-02-21T07:16:31.838Z,13.57
2023-02-21T07:17:03.515Z,14.40
2023-02-21T07:17:35.229Z,14.23
2023-02-21T07:18:06.901Z,13.57
2023-02-21T07:18:38.555Z,14.27
2023-02-21T07:19:47.568Z,13.50
2023-02-21T07:20:19.363Z,13.83
2023-02-21T07:20:51.120Z,13.77
2023-02-21T07:21:23.364Z,13.87
2023-02-21T07:21:55.256Z,14.20
2023-02-21T07:22:26.992Z,13.60
2023-02-21T07:22:58.951Z,13.13
2023-02-21T07:23:30.837Z,12.73
2023-02-21T07:24:02.661Z,12.83
2023-02-21T07:24:37.079Z,12.93
2023-02-21T07:25:08.800Z,13.07
2023-02-21T07:25:40.480Z,13.43
2023-02-21T07:26:13.045Z,13.23
2023-02-21T07:26:44.896Z,13.93
2023-02-21T07:27:16.598Z,12.60
2023-02-21T07:27:49.611Z,12.40
2023-02-21T07:28:21.411Z,12.63
2023-02-21T07:28:54.371Z,13.10
2023-02-21T07:29:26.937Z,13.20
2023-02-21T07:29:58.743Z,12.63
2023-02-21T07:30:31.818Z,12.77
2023-02-21T07:31:05.062Z,11.87
2023-02-21T07:31:37.408Z,12.23
2023-02-21T07:32:12.044Z,12.70
2023-02-21T07:33:17.500Z,12.80
2023-02-21T07:33:49.193Z,12.30
2023-02-21T07:34:22.385Z,12.57
2023-02-21T07:34:55.352Z,11.93
2023-02-21T07:35:27.196Z,11.40
2023-02-21T07:35:58.886Z,11.73
2023-02-21T07:36:31.072Z,11.87
2023-02-21T07:37:03.343Z,11.10
2023-02-21T07:37:35.215Z,11.97
2023-02-21T07:38:07.490Z,12.07
2023-02-21T07:38:39.239Z,11.93
2023-02-21T07:39:10.932Z,12.53
2023-02-21T07:39:42.608Z,11.80
2023-02-21T07:40:14.351Z,11.67
2023-02-21T07:40:46.191Z,11.73
2023-02-21T07:41:19.920Z,12.53
2023-02-21T07:41:57.988Z,12.30
2023-02-21T07:42:31.296Z,12.30
2023-02-21T07:43:03.008Z,12.77
2023-02-21T07:43:34.916Z,12.90
2023-02-21T07:44:07.905Z,12.40
2023-02-21T07:44:39.649Z,12.23
2023-02-21T07:45:12.359Z,12.73
2023-02-21T07:45:44.378Z,12.60
2023-02-21T07:46:17.552Z,13.23
2023-02-21T07:46:49.340Z,13.37
2023-02-21T07:47:21.122Z,12.97
2023-02-21T07:47:53.490Z,13.57
2023-02-21T07:48:25.665Z,12.40
2023-02-21T07:48:58.813Z,12.57
2023-02-21T07:49:30.564Z,12.40
2023-02-21T07:50:02.352Z,12.43
2023-02-21T07:50:34.101Z,12.07
2023-02-21T07:51:08.264Z,12.40
2023-02-21T07:51:40.123Z,12.37
2023-02-21T07:52:11.851Z,12.13
2023-02-21T07:52:43.652Z,11.67
2023-02-21T07:53:16.501Z,12.47
2023-02-21T07:53:48.299Z,12.57
2023-02-21T07:54:20.100Z,12.63
2023-02-21T07:54:51.809Z,12.47
2023-02-21T07:55:23.555Z,13.00
2023-02-21T07:55:55.309Z,12.37
2023-02-21T07:56:27.132Z,11.87
2023-02-21T07:57:06.134Z,12.73
2023-02-21T07:57:39.059Z,11.70
2023-02-21T07:58:15.883Z,12.13
2023-02-21T07:58:50.079Z,11.87
2023-02-21T07:59:21.915Z,12.47
2023-02-21T07:59:54.504Z,12.77
2023-02-21T08:00:29.104Z,12.20
2023-02-21T08:01:56.301Z,12.80
2023-02-21T08:02:28.083Z,13.20
2023-02-21T08:03:00.144Z,12.10
2023-02-21T08:03:32.206Z,12.30
2023-02-21T08:04:04.660Z,12.40
2023-02-21T08:04:36.645Z,11.80
2023-02-21T08:05:09.818Z,12.40
2023-02-21T08:05:41.558Z,12.17
2023-02-21T08:06:13.329Z,12.70
2023-02-21T08:06:45.004Z,11.20
2023-02-21T08:07:16.827Z,11.57
2023-02-21T08:07:48.567Z,12.23
2023-02-21T08:08:20.269Z,12.33
2023-02-21T08:08:53.082Z,12.57
2023-02-21T08:09:26.137Z,12.33
2023-02-21T08:09:57.930Z,12.03
2023-02-21T08:10:29.721Z,12.00
2023-02-21T08:11:01.749Z,11.67
2023-02-21T08:11:36.727Z,12.23
2023-02-21T08:12:08.767Z,11.37
2023-02-21T08:12:40.442Z,11.07
2023-02-21T08:13:12.113Z,11.80
2023-02-21T08:13:43.824Z,12.70
2023-02-21T08:14:15.621Z,12.77
2023-02-21T08:14:48.660Z,12.53
2023-02-21T08:15:21.125Z,12.60
2023-02-21T08:15:52.916Z,12.97
2023-02-21T08:16:24.844Z,12.43
2023-02-21T08:16:56.729Z,12.63
2023-02-21T08:17:28.410Z,12.10
2023-02-21T08:18:00.150Z,12.50
2023-02-21T08:18:31.817Z,11.97
2023-02-21T08:19:05.582Z,12.13
2023-02-21T08:19:37.554Z,12.30
2023-02-21T08:20:09.775Z,12.87
2023-02-21T08:20:41.519Z,12.87
2023-02-21T08:21:13.491Z,12.43
2023-02-21T08:21:48.940Z,12.33
2023-02-21T08:22:20.691Z,12.27
2023-02-21T08:22:52.427Z,12.47
2023-02-21T08:23:24.498Z,12.93
2023-02-21T08:23:56.232Z,13.40
2023-02-21T08:24:27.952Z,12.47
2023-02-21T08:24:59.789Z,12.27
2023-02-21T08:25:31.459Z,12.50
2023-02-21T08:26:04.807Z,12.07
2023-02-21T08:26:36.573Z,11.47
2023-02-21T08:27:10.873Z,11.43
2023-02-21T08:27:43.872Z,12.37
2023-02-21T08:28:17.977Z,12.50
2023-02-21T08:28:59.493Z,12.30
2023-02-21T08:30:52.918Z,12.97
2023-02-21T08:31:27.270Z,13.40
2023-02-21T08:32:51.795Z,12.70
2023-02-21T08:33:23.593Z,12.50
2023-02-21T08:33:56.118Z,12.93
2023-02-21T08:34:30.072Z,12.33
2023-02-21T08:35:03.691Z,12.13
2023-02-21T08:35:35.430Z,12.80
2023-02-21T08:36:08.180Z,12.20
2023-02-21T08:36:42.606Z,11.70
2023-02-21T08:37:20.343Z,12.43
2023-02-21T08:37:52.041Z,11.70
2023-02-21T08:38:23.762Z,11.97
2023-02-21T08:38:55.452Z,12.83
2023-02-21T08:39:30.211Z,13.27
2023-02-21T08:40:04.097Z,11.70
2023-02-21T08:40:35.870Z,11.83
2023-02-21T08:41:07.594Z,13.13
2023-02-21T08:41:45.057Z,13.63
2023-02-21T08:42:17.044Z,12.83
2023-02-21T08:42:50.880Z,11.80
2023-02-21T08:43:22.603Z,12.57
2023-02-21T08:43:54.305Z,12.43
2023-02-21T08:44:25.979Z,12.83
2023-02-21T08:44:57.733Z,12.93
2023-02-21T08:45:30.516Z,13.03
2023-02-21T08:46:03.043Z,12.40
2023-02-21T08:46:35.665Z,13.27
2023-02-21T08:47:07.617Z,12.40
2023-02-21T08:47:39.300Z,12.20
2023-02-21T08:48:10.976Z,12.10
2023-02-21T08:48:42.628Z,12.63
2023-02-21T08:49:14.875Z,12.37
2023-02-21T08:49:48.073Z,11.53
2023-02-21T08:50:22.391Z,12.20
2023-02-21T08:50:54.190Z,12.57
2023-02-21T08:51:27.608Z,13.23
2023-02-21T08:51:59.294Z,12.40
2023-02-21T08:52:31.026Z,12.83
2023-02-21T08:53:02.726Z,12.07
2023-02-21T08:53:34.380Z,12.37
2023-02-21T08:54:06.908Z,12.50
2023-02-21T08:54:38.682Z,12.90
2023-02-21T08:55:11.466Z,12.30
2023-02-21T08:55:44.660Z,12.33
2023-02-21T08:56:22.390Z,12.23
2023-02-21T08:57:03.404Z,12.37
2023-02-21T08:57:42.242Z,12.90
2023-02-21T08:58:18.359Z,12.83
2023-02-21T08:58:51.689Z,11.97
2023-02-21T09:00:30.975Z,12.07
2023-02-21T09:01:12.695Z,11.40
2023-02-21T09:01:47.161Z,11.97
2023-02-21T09:03:41.868Z,12.40
2023-02-21T09:04:14.816Z,11.77
2023-02-21T09:04:47.019Z,12.43
2023-02-21T09:05:24.517Z,12.83
2023-02-21T09:05:56.428Z,11.57
2023-02-21T09:06:28.233Z,11.77
2023-02-21T09:06:59.941Z,12.23
2023-02-21T09:07:33.503Z,12.07
2023-02-21T09:08:05.442Z,11.77
2023-02-21T09:08:38.681Z,12.13
2023-02-21T09:09:10.394Z,12.07
2023-02-21T09:09:42.123Z,12.33
2023-02-21T09:10:13.943Z,12.07
2023-02-21T09:10:47.936Z,12.50
2023-02-21T09:11:19.739Z,12.60
2023-02-21T09:11:51.423Z,11.50
2023-02-21T09:12:23.202Z,11.67
2023-02-21T09:12:54.934Z,11.60
2023-02-21T09:13:27.865Z,11.50
2023-02-21T09:13:59.622Z,10.97
2023-02-21T09:14:31.416Z,10.63
2023-02-21T09:15:03.325Z,11.13
2023-02-21T09:15:35.112Z,11.13
2023-02-21T09:16:07.054Z,11.47
2023-02-21T09:16:39.208Z,11.90
2023-02-21T09:17:13.927Z,12.50
2023-02-21T09:17:46.142Z,11.40
2023-02-21T09:18:17.858Z,11.10
2023-02-21T09:19:01.404Z,11.63
2023-02-21T09:19:34.450Z,11.37
2023-02-21T09:20:08.921Z,11.63
2023-02-21T09:20:42.425Z,12.23
2023-02-21T09:21:14.296Z,11.57
2023-02-21T09:21:48.153Z,11.17
2023-02-21T09:22:20.196Z,11.27
2023-02-21T09:22:52.301Z,10.90
2023-02-21T09:23:27.329Z,11.47
2023-02-21T09:23:59.518Z,11.93
2023-02-21T09:24:31.927Z,10.70
2023-02-21T09:25:04.537Z,11.47
2023-02-21T09:25:36.230Z,11.43
2023-02-21T09:26:07.978Z,10.90
2023-02-21T09:26:39.689Z,10.73
2023-02-21T09:27:12.428Z,10.97
2023-02-21T09:27:44.122Z,11.27
2023-02-21T09:28:16.888Z,11.97
2023-02-21T09:28:48.593Z,11.50
2023-02-21T09:29:26.549Z,11.77
2023-02-21T09:29:59.566Z,12.23
2023-02-21T09:30:32.036Z,11.70
2023-02-21T09:31:03.858Z,11.60
2023-02-21T09:31:35.580Z,11.17
2023-02-21T09:32:07.304Z,11.50
2023-02-21T09:32:40.128Z,11.80
2023-02-21T09:33:12.864Z,10.70
2023-02-21T09:33:45.400Z,10.90
2023-02-21T09:34:17.342Z,11.53
2023-02-21T09:34:49.015Z,11.37
2023-02-21T09:35:20.770Z,11.67
2023-02-21T09:35:54.078Z,11.20
2023-02-21T09:36:25.857Z,11.23
2023-02-21T09:36:57.691Z,11.07
2023-02-21T09:37:30.097Z,11.53
2023-02-21T09:38:03.607Z,11.90
2023-02-21T09:38:35.497Z,11.57
2023-02-21T09:39:08.538Z,11.70
2023-02-21T09:39:40.438Z,11.57
2023-02-21T09:40:34.393Z,12.17
2023-02-21T09:41:09.611Z,11.17
2023-02-21T09:41:45.038Z,11.13
2023-02-21T09:42:18.828Z,11.73
2023-02-21T09:42:54.895Z,12.30
2023-02-21T09:43:43.410Z,12.77
2023-02-21T09:44:27.451Z,13.07
2023-02-21T09:44:59.861Z,12.80
2023-02-21T09:45:34.633Z,12.03
2023-02-21T09:46:16.495Z,11.77
2023-02-21T09:46:53.078Z,11.63
2023-02-21T09:47:45.439Z,12.17
2023-02-21T09:48:23.187Z,12.53
2023-02-21T09:48:55.262Z,12.57
2023-02-21T09:49:42.069Z,12.57
2023-02-21T09:50:16.589Z,12.33
2023-02-21T09:50:53.366Z,12.60
2023-02-21T09:51:26.039Z,12.97
2023-02-21T09:52:01.323Z,13.13
2023-02-21T09:52:37.742Z,12.17
2023-02-21T09:53:16.466Z,12.00
2023-02-21T09:53:49.299Z,11.77
2023-02-21T09:54:23.700Z,12.80
2023-02-21T09:54:58.964Z,13.30
2023-02-21T09:55:36.336Z,12.20
2023-02-21T09:56:21.468Z,12.03
2023-02-21T09:56:54.845Z,12.67
2023-02-21T09:57:26.713Z,12.73
2023-02-21T09:57:58.425Z,12.27
2023-02-21T09:58:30.433Z,12.37
2023-02-21T09:59:02.141Z,12.50
2023-02-21T09:59:36.109Z,11.93
2023-02-21T10:00:24.741Z,12.33
2023-02-21T10:01:07.656Z,12.60
2023-02-21T10:01:39.352Z,12.63
2023-02-21T10:02:11.131Z,12.43
2023-02-21T10:02:59.440Z,13.67
2023-02-21T10:03:50.969Z,12.00
2023-02-21T10:05:12.190Z,11.70
2023-02-21T10:05:50.884Z,12.13
2023-02-21T10:06:36.980Z,11.67
2023-02-21T10:07:17.176Z,12.10
2023-02-21T10:07:54.329Z,12.07
2023-02-21T10:08:42.639Z,12.20
2023-02-21T10:09:14.271Z,12.60
2023-02-21T10:10:05.264Z,12.90
2023-02-21T10:10:58.625Z,12.30
2023-02-21T10:12:04.031Z,12.10
2023-02-21T10:13:04.901Z,11.33
2023-02-21T10:13:48.579Z,12.53
2023-02-21T10:14:52.519Z,11.90
2023-02-21T10:15:49.445Z,12.83
2023-02-21T10:16:28.521Z,11.93
2023-02-21T10:17:19.176Z,11.90
2023-02-21T10:18:04.585Z,11.63
2023-02-21T10:18:49.706Z,11.57
2023-02-21T10:19:31.843Z,12.80
2023-02-21T10:20:15.383Z,12.53
2023-02-21T10:20:53.205Z,12.27
2023-02-21T10:21:35.925Z,12.07
2023-02-21T10:22:34.656Z,12.03
2023-02-21T10:23:35.335Z,11.53
2023-02-21T10:24:14.143Z,12.87
2023-02-21T10:24:47.068Z,12.50
2023-02-21T10:25:31.612Z,12.57
2023-02-21T10:26:11.142Z,11.67
2023-02-21T10:27:08.184Z,12.33
2023-02-21T10:27:42.290Z,11.27
2023-02-21T10:28:23.509Z,12.47
2023-02-21T10:28:57.573Z,12.67
2023-02-21T10:33:38.523Z,12.27
2023-02-21T10:34:47.398Z,12.20
2023-02-21T10:35:20.816Z,11.93
2023-02-21T10:35:55.189Z,12.17
2023-02-21T10:36:28.526Z,12.27
2023-02-21T10:37:51.421Z,12.17
2023-02-21T10:39:15.146Z,11.83
2023-02-21T10:41:28.073Z,12.57
2023-02-21T10:42:55.414Z,12.90
2023-02-21T10:43:42.009Z,12.70
2023-02-21T10:44:27.063Z,12.47
2023-02-21T10:44:59.124Z,12.53
2023-02-21T10:45:36.906Z,13.67
2023-02-21T10:46:11.338Z,13.13
2023-02-21T10:47:01.701Z,13.10
2023-02-21T10:48:00.723Z,12.67
2023-02-21T10:48:37.682Z,13.40
2023-02-21T10:49:24.593Z,13.30
2023-02-21T10:50:12.151Z,13.03
2023-02-21T10:50:51.691Z,12.40
2023-02-21T10:51:32.232Z,12.37
2023-02-21T10:52:10.463Z,13.43
2023-02-21T10:55:32.341Z,13.33
2023-02-21T10:56:20.451Z,13.10
2023-02-21T10:56:56.932Z,13.80
2023-02-21T10:57:41.273Z,12.40
2023-02-21T10:58:27.685Z,12.87
2023-02-21T10:59:06.296Z,13.33
2023-02-21T10:59:42.933Z,13.23
2023-02-21T11:00:35.056Z,13.47
2023-02-21T11:01:18.972Z,14.67
2023-02-21T11:01:52.733Z,14.70
2023-02-21T11:02:40.350Z,14.47
2023-02-21T11:03:21.013Z,14.70
2023-02-21T11:03:56.946Z,14.43
2023-02-21T11:04:35.149Z,14.40
2023-02-21T11:05:20.838Z,13.27
2023-02-21T11:05:57.729Z,13.07
2023-02-21T11:06:39.664Z,13.53
2023-02-21T11:07:16.039Z,13.17
2023-02-21T11:08:09.733Z,13.27
2023-02-21T11:08:44.675Z,12.80
2023-02-21T11:09:28.209Z,14.13
2023-02-21T11:09:59.883Z,12.67
2023-02-21T11:10:37.844Z,13.27
2023-02-21T11:11:11.008Z,12.73
2023-02-21T11:11:42.760Z,13.10
2023-02-21T11:12:19.950Z,12.90
2023-02-21T11:13:07.755Z,12.90
2023-02-21T11:13:43.164Z,12.90
2023-02-21T11:14:26.145Z,13.40
2023-02-21T11:14:57.784Z,12.70
2023-02-21T11:15:29.562Z,12.47
2023-02-21T11:16:17.348Z,12.90
2023-02-21T11:17:13.810Z,12.87
2023-02-21T11:17:47.052Z,12.17
2023-02-21T11:18:27.485Z,12.03
2023-02-21T11:19:07.239Z,12.30
2023-02-21T11:19:48.813Z,12.13
2023-02-21T11:20:23.560Z,12.10
2023-02-21T11:20:56.220Z,12.73
2023-02-21T11:21:36.149Z,12.70
2023-02-21T11:22:09.402Z,12.40
2023-02-21T11:22:47.507Z,11.93
2023-02-21T11:23:26.742Z,12.13
2023-02-21T11:24:05.599Z,12.00
2023-02-21T11:24:52.093Z,12.20
2023-02-21T11:25:30.122Z,12.60
2023-02-21T11:26:11.751Z,12.90
2023-02-21T11:26:54.477Z,13.53
2023-02-21T11:27:31.196Z,12.40
2023-02-21T11:28:20.935Z,11.33
2023-02-21T11:28:56.548Z,12.67
2023-02-21T11:29:30.515Z,12.10
2023-02-21T11:30:41.955Z,13.43
2023-02-21T11:31:29.021Z,13.00
2023-02-21T11:32:33.004Z,12.07
2023-02-21T11:33:10.101Z,11.47
2023-02-21T11:33:52.578Z,11.97
2023-02-21T11:34:30.948Z,12.40
2023-02-21T11:35:32.610Z,11.83
2023-02-21T11:36:20.336Z,11.93
2023-02-21T11:36:56.554Z,11.47
2023-02-21T11:37:29.649Z,11.13
2023-02-21T11:38:34.876Z,11.93
2023-02-21T11:39:28.177Z,11.77
2023-02-21T11:40:02.267Z,11.20
2023-02-21T11:40:51.346Z,11.63
2023-02-21T11:41:44.741Z,11.37
2023-02-21T11:42:33.273Z,12.80
2023-02-21T11:43:21.855Z,12.00
2023-02-21T11:43:55.113Z,11.23
2023-02-21T11:44:35.087Z,11.50
2023-02-21T11:45:15.713Z,11.50
2023-02-21T11:46:00.056Z,12.27
2023-02-21T11:46:34.442Z,11.80
2023-02-21T11:47:11.704Z,11.07
2023-02-21T11:47:51.652Z,11.53
2023-02-21T11:48:31.303Z,11.33
2023-02-21T11:49:24.429Z,11.17
2023-02-21T11:50:15.704Z,12.07
2023-02-21T11:50:53.708Z,10.90
2023-02-21T11:51:46.717Z,11.43
2023-02-21T11:52:45.564Z,10.40
2023-02-21T11:53:41.778Z,11.13
2023-02-21T11:54:14.109Z,10.40
2023-02-21T11:54:45.982Z,10.63
2023-02-21T11:55:21.906Z,10.77
2023-02-21T11:56:07.031Z,10.10
2023-02-21T11:56:54.524Z,10.40
2023-02-21T11:57:45.725Z,10.97
2023-02-21T11:59:01.846Z,11.27
2023-02-21T11:59:52.135Z,11.47
2023-02-21T12:00:45.348Z,10.00
2023-02-21T12:01:27.797Z,9.73
2023-02-21T12:02:25.072Z,10.27
2023-02-21T12:02:59.624Z,11.00
2023-02-21T12:03:36.070Z,10.67
2023-02-21T12:04:27.679Z,10.30
2023-02-21T12:05:24.523Z,10.70
2023-02-21T12:06:02.579Z,10.03
2023-02-21T12:07:03.295Z,9.67
2023-02-21T12:07:42.716Z,10.13
2023-02-21T12:08:52.698Z,9.63
2023-02-21T12:09:25.116Z,8.27
2023-02-21T12:10:09.155Z,9.00
2023-02-21T12:11:18.684Z,9.27
2023-02-21T12:12:09.558Z,10.00
2023-02-21T12:12:47.286Z,9.70
2023-02-21T12:14:14.298Z,9.77
2023-02-21T12:17:16.772Z,9.77
2023-02-21T12:18:06.924Z,8.97
2023-02-21T12:18:57.190Z,8.90
2023-02-21T12:19:54.524Z,9.07
2023-02-21T12:20:28.791Z,8.97
2023-02-21T12:21:19.088Z,8.90
2023-02-21T12:22:28.849Z,9.23
2023-02-21T12:23:03.074Z,9.17
2023-02-21T12:23:47.432Z,9.10